EGOV

Anglesey Airport

Angelsey, United Kingdom
METAR EGOV 241150Z AUTO 02004KT 9999 NCD 04/M05 Q1022
Observed Flight Rules
Feb-24 @ 11:50 UTC (35 minutes ago) Visual Flight Rules
Wind Visibility Clouds
20° at 4 knots 10,000+ meters
  • Clear skies
Temperatures Readings
Current 4°C / 39°F
Dewpoint -5°C / 23°F
Humidity 52%
Altimeter 30.18" Hg
Pressure 1022 hPa
Elevation 11
METAR EGOV 241150Z AUTO 02004KT 9999 NCD 04/M05 Q1022
Observed Flight Rules
Feb-24 @ 11:50 UTC
(35 minutes ago)
VFR
Wind Visibility
20° at 4 knots 10,000+ meters
Clouds
  • Clear skies
Temperature Dewpoint
4°C / 39°F -5°C / 23°F
Humidity Altimeter Pressure
52% 30.18" Hg 1022 hPa